createdAt,value
2023-01-03T00:01:39.213Z,8.09
2023-01-03T00:06:43.751Z,8.09
2023-01-03T00:12:05.626Z,8.07
2023-01-03T00:17:08.075Z,8.07
2023-01-03T00:22:12.797Z,8.09
2023-01-03T00:27:16.594Z,8.10
2023-01-03T00:32:18.280Z,8.12
2023-01-03T00:37:20.027Z,8.17
2023-01-03T00:42:21.723Z,8.19
2023-01-03T00:47:23.268Z,8.22
2023-01-03T00:52:25.006Z,8.25
2023-01-03T00:57:26.563Z,8.29
2023-01-03T01:02:28.329Z,8.32
2023-01-03T01:07:30.200Z,8.35
2023-01-03T01:12:31.801Z,8.39
2023-01-03T01:17:33.440Z,8.43
2023-01-03T01:22:35.313Z,8.46
2023-01-03T01:27:36.941Z,8.48
2023-01-03T01:32:38.506Z,8.50
2023-01-03T01:37:40.084Z,8.51
2023-01-03T01:43:00.519Z,8.52
2023-01-03T01:48:05.274Z,8.57
2023-01-03T01:53:13.068Z,8.65
2023-01-03T01:58:15.721Z,8.73
2023-01-03T02:03:17.455Z,8.79
2023-01-03T02:08:19.309Z,8.86
2023-01-03T02:13:39.892Z,8.92
2023-01-03T02:18:47.264Z,8.97
2023-01-03T02:24:07.646Z,8.99
2023-01-03T02:29:12.019Z,9.03
2023-01-03T02:34:21.527Z,9.05
2023-01-03T02:39:26.823Z,9.08
2023-01-03T02:44:31.790Z,9.07
2023-01-03T02:49:42.448Z,9.08
2023-01-03T02:54:47.250Z,9.06
2023-01-03T02:59:53.743Z,9.06
2023-01-03T03:04:56.858Z,9.07
2023-01-03T03:10:17.264Z,9.10
2023-01-03T03:15:22.924Z,9.13
2023-01-03T03:20:43.269Z,9.17
2023-01-03T03:25:50.277Z,9.19
2023-01-03T03:30:53.315Z,9.18
2023-01-03T03:36:18.101Z,9.17
2023-01-03T03:41:59.940Z,9.12
2023-01-03T03:47:07.085Z,9.09
2023-01-03T03:52:19.582Z,9.10
2023-01-03T03:57:25.839Z,9.11
2023-01-03T04:02:28.240Z,9.13
2023-01-03T04:07:30.194Z,9.14
2023-01-03T04:12:31.849Z,9.15
2023-01-03T04:17:33.481Z,9.16
2023-01-03T04:22:35.115Z,9.15
2023-01-03T04:27:36.677Z,9.12
2023-01-03T04:32:38.395Z,9.07
2023-01-03T04:37:39.960Z,9.02
2023-01-03T04:43:00.384Z,8.97
2023-01-03T04:48:02.115Z,8.89
2023-01-03T04:53:03.716Z,8.81
2023-01-03T04:58:05.591Z,8.76
2023-01-03T05:03:07.167Z,8.73
2023-01-03T05:08:09.859Z,8.71
2023-01-03T05:13:11.752Z,8.73
2023-01-03T05:18:13.659Z,8.76
2023-01-03T05:23:34.919Z,8.78
2023-01-03T05:28:36.520Z,8.79
2023-01-03T05:33:39.231Z,8.80
2023-01-03T05:38:40.849Z,8.80
2023-01-03T05:43:43.211Z,8.79
2023-01-03T05:48:44.800Z,8.78
2023-01-03T05:53:46.444Z,8.80
2023-01-03T05:58:49.237Z,8.83
2023-01-03T06:03:50.869Z,8.84
2023-01-03T06:08:53.574Z,8.84
2023-01-03T06:13:55.326Z,8.84
2023-01-03T06:18:57.276Z,8.81
2023-01-03T06:23:58.864Z,8.78
2023-01-03T06:29:00.980Z,8.76
2023-01-03T06:34:03.141Z,8.75
2023-01-03T06:39:05.044Z,8.77
2023-01-03T06:44:06.699Z,8.82
2023-01-03T06:49:27.101Z,8.86
2023-01-03T06:54:33.067Z,8.88
2023-01-03T06:59:34.669Z,8.92
2023-01-03T07:04:36.396Z,8.97
2023-01-03T07:09:38.000Z,8.99
2023-01-03T07:14:39.545Z,8.97
2023-01-03T07:19:41.226Z,8.92
2023-01-03T07:24:42.791Z,8.82
2023-01-03T07:29:44.450Z,8.71
2023-01-03T07:34:45.991Z,8.63
2023-01-03T07:39:47.575Z,8.56
2023-01-03T07:44:49.110Z,8.50
2023-01-03T07:49:50.790Z,8.45
2023-01-03T07:54:52.374Z,8.43
2023-01-03T07:59:54.018Z,8.47
2023-01-03T08:04:55.705Z,8.67
2023-01-03T08:10:16.062Z,8.98
2023-01-03T08:15:17.865Z,9.27
2023-01-03T08:20:19.468Z,9.55
2023-01-03T08:25:21.065Z,9.81
2023-01-03T08:30:23.251Z,10.06
2023-01-03T08:35:25.907Z,10.27
2023-01-03T08:40:29.241Z,10.43
2023-01-03T08:45:30.859Z,10.63
2023-01-03T08:50:33.835Z,10.89
2023-01-03T08:55:35.466Z,11.05
2023-01-03T09:00:39.848Z,10.93
2023-01-03T09:05:41.569Z,10.80
2023-01-03T09:10:47.660Z,10.81
2023-01-03T09:15:49.516Z,10.90
2023-01-03T09:20:51.871Z,11.01
2023-01-03T09:25:53.664Z,11.16
2023-01-03T09:30:55.243Z,11.43
2023-01-03T09:35:56.835Z,11.64
2023-01-03T09:41:02.720Z,11.75
2023-01-03T09:46:07.622Z,11.77
2023-01-03T09:51:46.886Z,11.82
2023-01-03T09:57:23.214Z,11.89
2023-01-03T10:02:46.779Z,11.93
2023-01-03T10:08:07.374Z,11.81
2023-01-03T10:13:28.043Z,11.82
2023-01-03T10:18:48.592Z,11.95
2023-01-03T10:23:50.619Z,12.11
2023-01-03T10:28:52.460Z,12.10
2023-01-03T10:33:54.103Z,11.92
2023-01-03T10:39:03.674Z,11.52
2023-01-03T10:44:05.296Z,11.20
2023-01-03T10:49:27.088Z,11.06
2023-01-03T10:54:31.885Z,11.01
2023-01-03T10:59:33.751Z,11.05
2023-01-03T11:04:35.906Z,11.00
2023-01-03T11:09:52.182Z,11.07
2023-01-03T11:14:56.343Z,11.31
2023-01-03T11:19:58.053Z,11.70
2023-01-03T11:25:19.916Z,12.10
2023-01-03T11:30:21.695Z,12.36
2023-01-03T11:35:32.455Z,12.35
2023-01-03T11:40:43.213Z,12.43
2023-01-03T11:45:49.416Z,12.60
2023-01-03T11:51:03.196Z,12.45
2023-01-03T11:56:17.071Z,12.25
2023-01-03T12:01:39.032Z,11.84
2023-01-03T12:07:21.385Z,11.36
2023-01-03T12:12:23.951Z,11.06
2023-01-03T12:17:33.767Z,10.99
2023-01-03T12:22:41.812Z,11.15
2023-01-03T12:27:46.833Z,11.13
2023-01-03T12:32:52.070Z,11.04
2023-01-03T12:37:55.002Z,11.03
2023-01-03T12:43:15.520Z,11.06
2023-01-03T12:48:35.483Z,11.10
2023-01-03T12:53:50.075Z,11.00
2023-01-03T12:58:51.729Z,10.93
2023-01-03T13:04:00.363Z,10.87
2023-01-03T13:09:04.463Z,10.87
2023-01-03T13:14:16.085Z,10.92
2023-01-03T13:19:23.675Z,10.97
2023-01-03T13:24:25.159Z,10.98
2023-01-03T13:29:32.822Z,10.97
2023-01-03T13:34:35.956Z,10.89
2023-01-03T13:39:43.708Z,10.74
2023-01-03T13:44:45.393Z,10.64
2023-01-03T13:49:53.679Z,10.53
2023-01-03T13:54:56.672Z,10.39
2023-01-03T13:59:59.648Z,10.27
2023-01-03T14:05:08.362Z,10.16
2023-01-03T14:10:09.887Z,10.01
2023-01-03T14:15:26.409Z,9.88
2023-01-03T14:20:32.304Z,9.71
2023-01-03T14:25:34.050Z,9.55
2023-01-03T14:30:37.437Z,9.53
2023-01-03T14:35:40.609Z,9.43
2023-01-03T14:40:46.670Z,9.35
2023-01-03T14:46:03.752Z,9.33
2023-01-03T14:51:05.956Z,9.30
2023-01-03T14:56:10.401Z,9.25
2023-01-03T15:01:14.381Z,9.19
2023-01-03T15:06:24.315Z,9.12
2023-01-03T15:11:59.329Z,9.05
2023-01-03T15:17:03.044Z,8.98
2023-01-03T15:22:06.932Z,8.88
2023-01-03T15:27:27.283Z,8.75
2023-01-03T15:32:28.866Z,8.62
2023-01-03T15:37:30.619Z,8.51
2023-01-03T15:42:57.972Z,8.41
2023-01-03T15:48:01.297Z,8.26
2023-01-03T15:53:02.931Z,8.14
2023-01-03T16:03:05.075Z,7.93
2023-01-03T16:08:15.749Z,7.83
2023-01-03T16:13:17.919Z,7.75
2023-01-03T16:18:28.606Z,7.77
2023-01-03T16:23:31.164Z,7.88
2023-01-03T16:28:33.176Z,7.98
2023-01-03T16:33:35.817Z,8.04
2023-01-03T16:38:37.441Z,8.11
2023-01-03T16:43:39.040Z,8.25
2023-01-03T16:48:43.553Z,8.38
2023-01-03T16:53:46.423Z,8.29
2023-01-03T16:58:48.026Z,8.15
2023-01-03T17:03:49.710Z,7.94
2023-01-03T17:08:51.473Z,7.76
2023-01-03T17:13:56.869Z,7.71
2023-01-03T17:18:58.613Z,7.69
2023-01-03T17:24:00.225Z,7.66
2023-01-03T17:29:02.760Z,7.69
2023-01-03T17:34:16.513Z,7.80
2023-01-03T17:39:18.804Z,7.91
2023-01-03T17:44:20.372Z,8.13
2023-01-03T17:49:24.715Z,8.39
2023-01-03T17:54:28.534Z,8.62
2023-01-03T17:59:30.097Z,8.78
2023-01-03T18:04:57.787Z,8.79
2023-01-03T18:09:55.464Z,8.77
2023-01-03T18:14:57.247Z,8.74
2023-01-03T18:19:59.589Z,8.70
2023-01-03T18:25:01.179Z,8.68
2023-01-03T18:30:02.927Z,8.65
2023-01-03T18:35:05.130Z,8.61
2023-01-03T18:40:08.116Z,8.56
2023-01-03T18:45:11.272Z,8.50
2023-01-03T18:50:19.577Z,8.42
2023-01-03T18:55:24.064Z,8.28
2023-01-03T19:00:26.234Z,8.17
2023-01-03T19:05:27.777Z,8.03
2023-01-03T19:10:29.428Z,7.90
2023-01-03T19:15:31.064Z,7.78
2023-01-03T19:20:32.812Z,7.74
2023-01-03T19:25:34.551Z,7.68
2023-01-03T19:30:38.543Z,7.58
2023-01-03T19:35:40.239Z,7.48
2023-01-03T19:40:45.167Z,7.43
2023-01-03T19:45:47.006Z,7.41
2023-01-03T19:50:49.035Z,7.39
2023-01-03T19:55:52.513Z,7.28
2023-01-03T20:00:54.549Z,7.23
2023-01-03T20:05:57.170Z,7.27
2023-01-03T20:11:08.849Z,7.25
2023-01-03T20:16:11.425Z,7.15
2023-01-03T20:21:22.028Z,6.97
2023-01-03T20:26:29.991Z,6.83
2023-01-03T20:31:31.953Z,6.75
2023-01-03T20:36:36.524Z,6.79
2023-01-03T20:41:38.147Z,6.92
2023-01-03T20:46:40.228Z,6.98
2023-01-03T20:51:42.432Z,7.00
2023-01-03T20:56:44.727Z,6.94
2023-01-03T21:01:48.330Z,6.90
2023-01-03T21:06:52.010Z,6.91
2023-01-03T21:11:53.845Z,6.83
2023-01-03T21:16:55.659Z,6.76
2023-01-03T21:21:59.183Z,6.67
2023-01-03T21:27:00.780Z,6.53
2023-01-03T21:32:02.601Z,6.39
2023-01-03T21:37:04.375Z,6.20
2023-01-03T21:42:24.941Z,6.04
2023-01-03T21:47:26.585Z,5.87
2023-01-03T21:52:28.160Z,5.59
2023-01-03T21:57:29.969Z,5.40
2023-01-03T22:02:53.424Z,5.26
2023-01-03T22:08:00.340Z,5.14
2023-01-03T22:13:09.277Z,5.08
2023-01-03T22:18:13.237Z,4.97
2023-01-03T22:23:16.855Z,4.83
2023-01-03T22:28:18.530Z,4.77
2023-01-03T22:33:20.226Z,4.75
2023-01-03T22:38:21.975Z,4.63
2023-01-03T22:43:23.652Z,4.40
2023-01-03T22:48:35.217Z,4.25
2023-01-03T22:53:37.850Z,4.19
2023-01-03T22:58:39.460Z,4.06
2023-01-03T23:03:41.215Z,3.96
2023-01-03T23:08:43.677Z,3.82
2023-01-03T23:13:45.419Z,3.69
2023-01-03T23:18:47.057Z,3.59
2023-01-03T23:23:49.713Z,3.56
2023-01-03T23:28:54.819Z,3.49
2023-01-03T23:33:57.127Z,3.40
2023-01-03T23:38:58.833Z,3.32
2023-01-03T23:44:00.412Z,3.23
2023-01-03T23:49:02.127Z,3.19
2023-01-03T23:54:03.891Z,3.15
2023-01-03T23:59:05.705Z,3.41
